PAYA/YAK METAR and TAF weather

Enter ICAO airport designator
Station Type Date Time Source
PAYA METAR 2019/06/19 01:53 UTC NOAA

PAYA 190153Z AUTO 22004KT 10SM FEW019 OVC040 13/08 A3003 RMK AO2 SLP168 T01280083 TSNO


Station Type Date Time Source
PAYA Decoded METAR 2019/06/19 01:53 UTC NOAA

YAKUTAT AIRPORT, AK, United States (PAYA) 59-30N 139-40W 9M
Jun 18, 2019 - 09:53 PM EDT / 2019.06.19 0153 UTC
Wind: from the SW (220 degrees) at 5 MPH (4 KT):0
Visibility: 10 mile(s):0
Sky conditions: overcast
Temperature: 55.0 F (12.8 C)
Dew Point: 46.9 F (8.3 C)
Relative Humidity: 74%
Pressure (altimeter): 30.03 in. Hg (1016 hPa)
ob: PAYA 190153Z AUTO 22004KT 10SM FEW019 OVC040 13/08 A3003 RMK AO2 SLP168 T01280083 TSNO
cycle: 2

Station Type Date Time Source
PAYA TAF 2019/06/18 18:42 UTC NOAA

TAF PAYA 181741Z 1818/1918 VRB03KT P6SM -SHRA SCT006 BKN035 OVC050
TEMPO 1818/1821 6SM -SHRA BKN006 OVC030
FM182300 22005KT P6SM VCSH BKN035 OVC050
FM190600 29003KT 6SM -SHRA FEW015 OVC025
AMD LTD TO CLD VIS AND WIND

Example: see airport list